Time;durP1;ratioP1;P1;durP2;ratioP2;P2;SDS_P1;SDS_P2;PMS_P1;PMS_P2;Temp;Humidity;BMP_temperature;BMP_pressure;BME280_temperature;BME280_humidity;BME280_pressure;Samples;Min_cycle;Max_cycle;Signal;HPM_P1;HPM_P2
2023/05/10 00:01:31;;;;;;;3.00;2.38;;;;;;;11.02;58.13;99875.28;4944490;28;20057;-90
2023/05/10 00:03:57;;;;;;;3.30;2.08;;;;;;;11.02;57.99;99870.75;4944758;28;20054;-89
2023/05/10 00:06:22;;;;;;;5.18;2.40;;;;;;;10.93;58.38;99866.88;4944461;28;20042;-89
2023/05/10 00:08:47;;;;;;;4.18;2.05;;;;;;;11.05;57.93;99883.69;4960781;28;20026;-90
2023/05/10 00:11:13;;;;;;;5.22;2.80;;;;;;;10.95;58.49;99863.94;4944041;28;20031;-90
2023/05/10 00:13:38;;;;;;;4.82;2.45;;;;;;;11.04;57.52;99863.22;4944340;28;20055;-90
2023/05/10 00:16:04;;;;;;;3.53;2.30;;;;;;;11.14;58.09;99881.31;4928297;28;20030;-90
2023/05/10 00:18:30;;;;;;;8.40;2.78;;;;;;;11.10;58.65;99867.56;4928291;28;20022;-89
2023/05/10 00:20:55;;;;;;;3.05;2.60;;;;;;;11.10;58.69;99856.78;4960310;28;20029;-91
2023/05/10 00:23:21;;;;;;;5.00;2.88;;;;;;;11.08;59.14;99855.41;4944291;28;20050;-89
2023/05/10 00:25:46;;;;;;;3.38;2.65;;;;;;;11.10;58.98;99854.09;4950320;28;20531;-89
2023/05/10 00:28:11;;;;;;;4.18;2.63;;;;;;;11.18;58.63;99870.81;4954326;28;20449;-89
2023/05/10 00:30:37;;;;;;;3.22;2.40;;;;;;;11.10;58.51;99850.56;4934733;28;20403;-90
2023/05/10 00:33:02;;;;;;;4.18;2.63;;;;;;;11.01;58.50;99847.53;4954744;28;20400;-89
2023/05/10 00:35:28;;;;;;;4.47;2.30;;;;;;;11.10;58.54;99855.94;4927930;28;20041;-90
2023/05/10 00:37:53;;;;;;;3.10;2.35;;;;;;;11.02;59.68;99853.72;4944261;28;20038;-89
2023/05/10 00:40:19;;;;;;;5.57;3.72;;;;;;;10.85;59.49;99838.56;4928619;28;20026;-89
2023/05/10 00:42:44;;;;;;;3.75;2.60;;;;;;;10.89;59.55;99860.38;4944077;28;20038;-90
2023/05/10 00:45:13;;;;;;;7.13;2.90;;;;;;;10.77;60.68;99848.97;4943945;28;20026;-90
2023/05/10 00:47:39;;;;;;;7.43;2.65;;;;;;;10.95;61.08;99872.81;4929933;28;20556;-95
2023/05/10 00:50:05;;;;;;;6.55;2.70;;;;;;;10.69;61.74;99839.53;4946863;28;20023;-94
2023/05/10 00:52:30;;;;;;;4.05;2.53;;;;;;;10.67;60.35;99845.16;4931591;28;20034;-94
2023/05/10 00:54:56;;;;;;;4.78;2.80;;;;;;;10.71;59.12;99856.22;4929937;28;20033;-94
2023/05/10 00:57:21;;;;;;;7.68;2.45;;;;;;;10.69;59.11;99847.59;4931042;28;20026;-93
2023/05/10 00:59:47;;;;;;;4.95;2.70;;;;;;;10.60;58.68;99849.13;4930975;28;20026;-94
2023/05/10 01:02:13;;;;;;;4.35;2.45;;;;;;;10.66;58.42;99854.28;4930929;28;20126;-94
2023/05/10 01:04:39;;;;;;;3.88;2.75;;;;;;;10.58;58.49;99852.06;4930156;28;20041;-94
2023/05/10 01:07:04;;;;;;;4.85;2.40;;;;;;;10.65;58.44;99841.09;4946120;28;20027;-94
2023/05/10 01:09:30;;;;;;;4.43;2.38;;;;;;;10.65;58.54;99846.47;4946294;28;20370;-96
2023/05/10 01:11:55;;;;;;;4.15;2.55;;;;;;;10.49;58.95;99838.25;4946739;28;20031;-95
2023/05/10 01:14:21;;;;;;;3.95;2.10;;;;;;;10.61;57.50;99851.56;4929202;28;20055;-94
2023/05/10 01:16:47;;;;;;;4.45;2.53;;;;;;;10.56;58.18;99848.81;4946251;28;20081;-94
2023/05/10 01:19:22;;;;;;;6.32;2.63;;;;;;;10.61;58.06;99848.06;4929918;28;20066;-95
2023/05/10 01:21:56;;;;;;;4.93;2.80;;;;;;;10.61;57.94;99856.94;4930543;28;20078;-94
2023/05/10 01:24:21;;;;;;;6.90;2.58;;;;;;;10.53;57.94;99854.72;4961363;28;20057;-95
2023/05/10 01:27:13;;;;;;;6.68;2.47;;;;;;;10.35;58.41;99839.75;4962888;28;20027;-94
2023/05/10 01:29:54;;;;;;;3.45;2.10;;;;;;;10.43;58.88;99852.75;4957086;28;20030;-95
2023/05/10 01:32:37;;;;;;;4.22;2.33;;;;;;;10.20;59.51;99850.34;4973256;28;20035;-94
2023/05/10 01:35:11;;;;;;;5.03;2.47;;;;;;;10.26;58.57;99843.94;4930403;29;20036;-94
2023/05/10 01:37:45;;;;;;;3.60;2.30;;;;;;;10.25;58.79;99837.75;4906956;29;20040;-95
2023/05/10 01:40:19;;;;;;;3.00;2.10;;;;;;;10.26;57.93;99833.19;4889038;29;20148;-95
2023/05/10 01:42:58;;;;;;;3.13;2.15;;;;;;;10.26;58.24;99842.06;4888124;29;20047;-95
2023/05/10 01:45:41;;;;;;;4.07;2.30;;;;;;;10.48;58.17;99855.50;4888602;29;20028;-94
2023/05/10 01:48:08;;;;;;;2.72;2.10;;;;;;;10.26;58.65;99822.41;4903221;29;20056;-95
2023/05/10 01:50:35;;;;;;;4.68;2.83;;;;;;;10.29;58.67;99833.53;4873284;29;20092;-94
2023/05/10 01:53:01;;;;;;;8.57;2.65;;;;;;;10.23;59.61;99820.22;4888726;29;20028;-96
2023/05/10 01:55:32;;;;;;;3.80;2.17;;;;;;;10.12;59.72;99824.69;4887185;29;20038;-95
2023/05/10 01:58:25;;;;;;;4.55;2.10;;;;;;;10.10;59.33;99816.88;4887418;29;20458;-95
2023/05/10 02:00:50;;;;;;;3.70;2.78;;;;;;;10.17;60.71;99848.16;4891859;29;20036;-94
2023/05/10 02:03:16;;;;;;;3.33;2.58;;;;;;;10.04;61.15;99830.53;4886367;29;20028;-95
2023/05/10 02:05:42;;;;;;;5.93;2.75;;;;;;;10.08;60.67;99824.38;4871881;29;20074;-95
2023/05/10 02:08:07;;;;;;;4.70;2.70;;;;;;;9.97;61.63;99830.75;4887758;29;20052;-96
2023/05/10 02:10:35;;;;;;;4.25;2.63;;;;;;;9.84;62.29;99823.09;4872068;29;20039;-96
2023/05/10 02:13:00;;;;;;;4.13;2.58;;;;;;;9.75;62.47;99827.25;4870887;29;20550;-95
2023/05/10 02:15:26;;;;;;;3.78;2.58;;;;;;;9.80;62.78;99840.78;4887665;29;20039;-95
2023/05/10 02:17:52;;;;;;;3.33;2.42;;;;;;;9.77;62.72;99825.94;4873784;29;20040;-95
2023/05/10 02:20:18;;;;;;;6.30;2.70;;;;;;;9.71;63.40;99822.41;4872212;29;20036;-95
2023/05/10 02:22:44;;;;;;;5.72;2.75;;;;;;;9.63;63.44;99819.31;4886895;29;20039;-94
2023/05/10 02:25:10;;;;;;;4.55;2.55;;;;;;;9.69;63.22;99831.75;4908317;28;20039;-94
2023/05/10 02:27:35;;;;;;;4.03;2.80;;;;;;;9.66;62.87;99827.72;4929214;28;20097;-94
2023/05/10 02:30:01;;;;;;;4.93;2.60;;;;;;;9.67;63.63;99833.91;4928991;28;20026;-93
2023/05/10 02:32:27;;;;;;;3.30;2.45;;;;;;;9.54;63.72;99812.78;4928348;28;20034;-94
2023/05/10 02:34:52;;;;;;;6.43;2.40;;;;;;;9.51;63.33;99806.84;4929334;28;20505;-95
2023/05/10 02:37:41;;;;;;;4.88;2.60;;;;;;;9.73;63.00;99840.97;4944628;28;20026;-94
2023/05/10 02:40:09;;;;;;;4.63;2.53;;;;;;;9.61;63.55;99818.78;4903636;29;20048;-94
2023/05/10 02:42:37;;;;;;;6.55;2.78;;;;;;;9.64;63.96;99831.72;4903465;29;20047;-95
2023/05/10 02:45:07;;;;;;;3.92;2.38;;;;;;;9.49;64.35;99810.84;4871633;29;20043;-94
2023/05/10 02:47:34;;;;;;;3.67;2.60;;;;;;;9.38;64.01;99807.22;4888703;29;20043;-94
2023/05/10 02:49:59;;;;;;;8.02;2.42;;;;;;;9.49;63.55;99826.97;4873187;29;20041;-93
2023/05/10 02:52:27;;;;;;;3.35;2.55;;;;;;;9.41;64.64;99824.72;4887974;29;20030;-93
2023/05/10 02:54:55;;;;;;;6.47;2.83;;;;;;;9.45;65.07;99823.16;4872803;29;20122;-94
2023/05/10 02:57:32;;;;;;;3.58;2.40;;;;;;;9.44;65.22;99808.91;4872074;29;20072;-94
2023/05/10 02:59:58;;;;;;;4.32;2.95;;;;;;;9.55;65.95;99833.25;4872400;29;20087;-94
2023/05/10 03:02:23;;;;;;;8.45;3.28;;;;;;;9.28;67.63;99809.78;4873131;29;20036;-95
2023/05/10 03:04:49;;;;;;;4.15;3.00;;;;;;;9.26;67.28;99806.53;4873097;29;20088;-93
2023/05/10 03:07:14;;;;;;;8.38;3.17;;;;;;;9.35;68.29;99839.97;4882357;29;20228;-94
2023/05/10 03:09:45;;;;;;;7.25;2.88;;;;;;;9.35;67.97;99839.97;4889911;29;20017;-94
2023/05/10 03:12:55;;;;;;;7.25;3.15;;;;;;;9.05;67.92;99821.56;4948474;28;20042;-94
2023/05/10 03:15:41;;;;;;;9.88;3.25;;;;;;;9.21;68.05;99838.69;4964405;28;20101;-94
2023/05/10 03:18:09;;;;;;;12.05;7.53;;;;;;;9.25;67.64;99847.88;4949373;28;20035;-94
2023/05/10 03:20:37;;;;;;;12.63;7.70;;;;;;;9.15;67.18;99837.84;4933452;28;20031;-94
2023/05/10 03:23:35;;;;;;;16.38;7.68;;;;;;;9.17;67.42;99842.94;4933703;28;20053;-94
2023/05/10 03:26:01;;;;;;;12.90;6.28;;;;;;;9.03;67.29;99818.31;4962269;28;20039;-94
2023/05/10 03:28:27;;;;;;;9.25;5.40;;;;;;;9.04;67.75;99828.78;4963083;28;20034;-95
2023/05/10 03:30:53;;;;;;;6.13;3.42;;;;;;;8.95;68.38;99840.22;4952548;28;20386;-95
2023/05/10 03:33:19;;;;;;;7.45;4.50;;;;;;;8.81;69.08;99820.94;4948879;28;20101;-94
2023/05/10 03:35:45;;;;;;;8.25;4.43;;;;;;;8.93;67.74;99835.09;4952543;28;20108;-94
2023/05/10 03:38:14;;;;;;;8.68;5.40;;;;;;;9.15;67.87;99858.47;4988583;28;20031;-94
2023/05/10 03:40:39;;;;;;;16.20;9.40;;;;;;;8.93;67.98;99832.41;4952028;28;20500;-95
2023/05/10 03:43:05;;;;;;;11.57;7.30;;;;;;;9.05;68.03;99848.44;4954743;28;20039;-94
2023/05/10 03:45:30;;;;;;;10.38;4.65;;;;;;;9.06;67.56;99850.03;4974037;28;20440;-94
2023/05/10 03:47:57;;;;;;;7.93;4.00;;;;;;;8.93;68.49;99848.50;4992324;28;20031;-96
2023/05/10 03:50:23;;;;;;;7.57;4.03;;;;;;;9.03;67.82;99840.59;4988778;28;20026;-96
2023/05/10 03:52:48;;;;;;;5.78;3.30;;;;;;;9.18;67.43;99855.31;4935907;28;20103;-95
2023/05/10 03:55:14;;;;;;;6.13;3.00;;;;;;;9.30;67.17;99858.72;4971179;28;20061;-96
2023/05/10 03:57:39;;;;;;;11.98;3.80;;;;;;;9.44;66.28;99876.13;4972354;28;20057;-95
2023/05/10 04:00:06;;;;;;;7.13;3.70;;;;;;;9.45;66.67;99861.59;4972675;28;20062;-93
2023/05/10 04:02:31;;;;;;;9.30;3.45;;;;;;;9.20;67.37;99845.13;4950381;28;20022;-95
2023/05/10 04:04:57;;;;;;;12.57;4.38;;;;;;;9.23;67.59;99872.31;4933634;28;20504;-95
2023/05/10 04:07:23;;;;;;;6.78;3.50;;;;;;;9.13;68.38;99844.47;4933335;28;20046;-96
2023/05/10 04:09:52;;;;;;;8.63;3.55;;;;;;;9.19;68.08;99855.06;4935563;29;20039;-94
2023/05/10 04:12:17;;;;;;;5.55;3.63;;;;;;;9.19;68.24;99856.94;4966786;28;20031;-94
2023/05/10 04:14:43;;;;;;;13.75;4.05;;;;;;;9.19;68.33;99844.31;4934747;28;20105;-95
2023/05/10 04:17:08;;;;;;;8.55;3.47;;;;;;;9.18;66.88;99829.25;4962065;28;20042;-91
2023/05/10 04:19:34;;;;;;;6.35;3.60;;;;;;;9.37;67.68;99856.66;4978543;28;20026;-94
2023/05/10 04:21:59;;;;;;;8.40;3.78;;;;;;;9.39;67.69;99857.22;4947812;28;20025;-94
2023/05/10 04:24:28;;;;;;;11.40;3.58;;;;;;;9.48;67.22;99861.13;4968460;28;20042;-96
2023/05/10 04:26:54;;;;;;;90.38;9.80;;;;;;;9.33;68.16;99847.47;4956439;28;20205;-95
2023/05/10 04:29:20;;;;;;;7.25;3.53;;;;;;;9.49;66.46;99835.03;4956964;28;20032;-95
2023/05/10 04:31:45;;;;;;;6.35;3.38;;;;;;;9.60;66.21;99862.84;4957964;28;20057;-95
2023/05/10 04:34:11;;;;;;;9.70;3.83;;;;;;;9.56;66.12;99842.91;4992712;28;20027;-93
2023/05/10 04:36:36;;;;;;;7.38;4.15;;;;;;;9.62;66.24;99855.34;4974113;28;20030;-94
2023/05/10 04:39:06;;;;;;;10.32;4.30;;;;;;;9.85;65.59;99865.03;4969118;28;20022;-94
2023/05/10 04:41:31;;;;;;;5.30;3.15;;;;;;;9.77;65.83;99852.84;4994832;28;20037;-95
2023/05/10 04:44:00;;;;;;;5.57;3.85;;;;;;;9.60;64.65;99823.34;4957002;28;20026;-95
2023/05/10 04:46:28;;;;;;;12.88;4.85;;;;;;;9.89;64.66;99850.03;4988451;28;20026;-95
2023/05/10 04:48:57;;;;;;;11.35;4.25;;;;;;;10.10;64.49;99854.53;4972811;28;20050;-96
2023/05/10 04:51:22;;;;;;;7.88;4.70;;;;;;;10.19;63.99;99849.53;4970706;28;20041;-95
2023/05/10 04:53:48;;;;;;;12.80;3.90;;;;;;;10.15;64.17;99847.59;4951391;28;20404;-91
2023/05/10 04:56:13;;;;;;;7.35;3.30;;;;;;;10.10;63.88;99837.59;4998031;28;20061;-91
2023/05/10 04:58:39;;;;;;;9.32;3.70;;;;;;;10.34;63.54;99859.66;4964497;28;20030;-92
2023/05/10 05:01:06;;;;;;;5.88;4.13;;;;;;;10.43;62.43;99843.88;4965283;28;20489;-93
2023/05/10 05:03:32;;;;;;;7.32;3.50;;;;;;;10.56;61.29;99837.25;4997861;28;20022;-93
2023/05/10 05:05:57;;;;;;;4.63;3.33;;;;;;;10.65;61.07;99820.38;4996652;28;20037;-92
2023/05/10 05:08:23;;;;;;;5.53;3.67;;;;;;;10.76;60.49;99831.22;4981959;28;20065;-93
2023/05/10 05:10:50;;;;;;;8.32;3.20;;;;;;;10.80;60.47;99835.81;4964760;28;20484;-93
2023/05/10 05:13:18;;;;;;;6.05;3.58;;;;;;;11.10;59.59;99848.69;4960986;28;20517;-94
2023/05/10 05:15:43;;;;;;;4.40;2.90;;;;;;;11.11;59.42;99850.31;4961326;28;20042;-94
2023/05/10 05:18:12;;;;;;;6.22;2.75;;;;;;;10.95;59.08;99828.91;4964519;28;20023;-95
2023/05/10 05:20:37;;;;;;;5.90;2.55;;;;;;;10.97;58.12;99843.75;4976173;28;20511;-95
2023/05/10 05:23:03;;;;;;;8.90;3.40;;;;;;;11.08;57.57;99850.84;4933436;28;20030;-93
2023/05/10 05:25:28;;;;;;;7.70;3.50;;;;;;;11.25;56.85;99855.25;4946905;28;20038;-93
2023/05/10 05:28:02;;;;;;;6.05;3.00;;;;;;;11.15;56.26;99828.25;4948437;29;20035;-96
2023/05/10 05:30:28;;;;;;;9.68;3.15;;;;;;;11.17;56.47;99855.75;4967756;28;20027;-95
2023/05/10 05:32:59;;;;;;;5.53;3.20;;;;;;;11.18;56.15;99846.56;4990482;28;20027;-90
2023/05/10 05:35:25;;;;;;;5.55;3.15;;;;;;;11.24;55.37;99838.25;4954906;28;20043;-96
2023/05/10 05:37:54;;;;;;;9.27;4.90;;;;;;;11.22;56.98;99853.06;4942430;28;20054;-96
2023/05/10 05:40:20;;;;;;;4.65;2.60;;;;;;;11.27;54.86;99847.72;4962929;28;20039;-96
2023/05/10 05:42:49;;;;;;;4.53;3.03;;;;;;;11.23;54.73;99844.72;4994535;28;20082;-95
2023/05/10 05:45:14;;;;;;;4.40;2.50;;;;;;;11.34;54.27;99856.38;4973119;28;20034;-95
2023/05/10 05:47:40;;;;;;;8.77;2.80;;;;;;;11.44;54.13;99861.00;4975021;28;20113;-96
2023/05/10 05:50:06;;;;;;;4.65;2.97;;;;;;;11.41;53.09;99831.88;4971684;28;20034;-94
2023/05/10 05:52:31;;;;;;;7.65;3.58;;;;;;;11.52;52.72;99857.81;4956968;28;20038;-95
2023/05/10 05:54:57;;;;;;;4.45;2.80;;;;;;;11.50;53.45;99846.47;4942475;28;20034;-95
2023/05/10 05:57:23;;;;;;;5.88;2.85;;;;;;;11.47;53.18;99845.09;4989809;28;20030;-95
2023/05/10 05:59:54;;;;;;;3.55;2.60;;;;;;;11.55;52.46;99848.38;4935977;28;20105;-94
2023/05/10 06:02:19;;;;;;;5.72;2.67;;;;;;;11.71;52.70;99852.78;4950956;28;20042;-95
2023/05/10 06:04:54;;;;;;;9.88;2.80;;;;;;;11.70;52.03;99848.44;4955755;28;20493;-96
2023/05/10 06:07:39;;;;;;;4.50;2.85;;;;;;;11.67;52.98;99840.88;4993791;28;20132;-96
2023/05/10 06:10:06;;;;;;;8.52;2.90;;;;;;;11.86;52.73;99842.03;4943697;28;20027;-94
2023/05/10 06:12:31;;;;;;;5.75;2.50;;;;;;;12.15;52.62;99878.56;4941249;28;20042;-94
2023/05/10 06:15:03;;;;;;;6.88;3.65;;;;;;;12.08;51.90;99859.94;4956102;28;20017;-95
2023/05/10 06:17:29;;;;;;;3.90;2.60;;;;;;;12.18;51.63;99851.03;4980058;28;20022;-95
2023/05/10 06:19:55;;;;;;;6.25;2.47;;;;;;;12.40;50.92;99862.41;4957163;28;20554;-95
2023/05/10 06:22:22;;;;;;;8.20;2.63;;;;;;;12.29;50.50;99845.38;4958147;28;20030;-93
2023/05/10 06:24:48;;;;;;;4.03;2.50;;;;;;;12.39;51.23;99841.06;4949018;28;20034;-92
2023/05/10 06:27:17;;;;;;;6.53;3.38;;;;;;;12.56;50.09;99852.44;4945196;28;20435;-92
2023/05/10 06:29:42;;;;;;;9.57;3.13;;;;;;;12.65;50.24;99852.72;4962151;28;20483;-92
2023/05/10 06:32:08;;;;;;;3.22;2.47;;;;;;;12.47;49.67;99857.56;4948803;28;20064;-95
2023/05/10 06:34:34;;;;;;;9.55;5.35;;;;;;;12.65;50.26;99860.81;4952675;28;20022;-95
2023/05/10 06:37:03;;;;;;;4.72;2.70;;;;;;;12.69;49.50;99853.78;4981359;28;20057;-94
2023/05/10 06:39:29;;;;;;;2.50;1.95;;;;;;;12.67;48.29;99869.47;4951931;28;20030;-95
2023/05/10 06:41:54;;;;;;;6.13;2.70;;;;;;;12.84;48.20;99869.19;4960045;28;20037;-94
2023/05/10 06:44:20;;;;;;;4.18;2.20;;;;;;;12.97;47.02;99875.94;4962324;28;20075;-93
2023/05/10 06:46:46;;;;;;;2.83;2.08;;;;;;;12.85;47.75;99852.69;4945888;28;20034;-96
2023/05/10 06:49:11;;;;;;;6.40;2.40;;;;;;;12.90;48.59;99862.69;4988660;28;20030;-94
2023/05/10 06:51:49;;;;;;;6.53;2.30;;;;;;;13.10;47.31;99859.16;4956802;28;20056;-94
2023/05/10 06:54:17;;;;;;;8.80;3.75;;;;;;;12.87;48.83;99839.72;4980150;28;20094;-95
2023/05/10 06:56:43;;;;;;;5.60;2.33;;;;;;;13.00;48.99;99840.25;4970069;28;20038;-94
2023/05/10 06:59:09;;;;;;;2.50;2.20;;;;;;;13.31;48.52;99870.78;4976906;28;20505;-94
2023/05/10 07:01:50;;;;;;;29.42;18.20;;;;;;;13.34;49.19;99851.28;4979736;28;20031;-96
2023/05/10 07:04:18;;;;;;;3.40;2.63;;;;;;;13.37;48.00;99842.63;4983294;28;20039;-96
2023/05/10 07:12:55;;;;;;;5.15;2.90;;;;;;;13.71;46.84;99848.16;5184611;23;20073;-96
2023/05/10 07:15:25;;;;;;;4.03;2.45;;;;;;;13.76;46.46;99844.66;5007023;28;20110;-96
2023/05/10 07:17:51;;;;;;;4.88;2.25;;;;;;;13.90;45.98;99853.78;5005564;28;20376;-93
2023/05/10 07:20:17;;;;;;;3.83;2.42;;;;;;;13.98;45.03;99852.38;4984739;28;20022;-93
2023/05/10 07:22:42;;;;;;;6.65;4.10;;;;;;;14.23;45.52;99864.16;4997473;28;20065;-93
2023/05/10 07:25:08;;;;;;;8.40;3.50;;;;;;;14.18;44.58;99867.72;5007956;28;20037;-93
2023/05/10 07:27:37;;;;;;;2.97;2.00;;;;;;;14.15;44.15;99846.59;4992877;28;20148;-94
2023/05/10 07:30:03;;;;;;;3.08;2.13;;;;;;;14.23;44.37;99856.03;5006548;28;20032;-93
2023/05/10 07:32:48;;;;;;;5.95;2.28;;;;;;;14.26;43.61;99869.03;5001417;28;20025;-93
2023/05/10 07:35:14;;;;;;;2.75;2.10;;;;;;;14.26;43.15;99856.28;5028795;28;20028;-94
2023/05/10 07:37:39;;;;;;;5.25;2.20;;;;;;;14.27;43.44;99848.97;4993491;28;20025;-92
2023/05/10 07:40:09;;;;;;;4.20;2.38;;;;;;;14.42;44.54;99840.75;5011019;28;20025;-93
2023/05/10 07:42:35;;;;;;;5.72;3.33;;;;;;;14.62;44.98;99847.91;5009127;28;20029;-93
2023/05/10 07:45:00;;;;;;;2.30;1.88;;;;;;;14.75;42.97;99865.41;5008254;28;20033;-94
2023/05/10 07:47:28;;;;;;;3.08;2.20;;;;;;;14.88;43.37;99877.50;4997518;28;20022;-94
2023/05/10 07:50:05;;;;;;;6.38;2.35;;;;;;;14.74;43.06;99872.75;5018747;28;20021;-95
2023/05/10 08:00:49;;;;;;;3.53;2.35;;;;;;;14.74;43.93;99829.38;3155270;26;20060;-91
2023/05/10 08:03:14;;;;;;;5.93;2.22;;;;;;;15.05;43.18;99856.22;4967686;28;20053;-91
2023/05/10 08:05:40;;;;;;;3.38;2.40;;;;;;;15.11;42.61;99843.41;4985857;28;20033;-94
2023/05/10 08:08:05;;;;;;;3.42;2.20;;;;;;;15.00;41.42;99839.19;4964653;28;20046;-90
2023/05/10 08:10:31;;;;;;;3.60;2.13;;;;;;;15.05;41.47;99850.00;4966135;28;20030;-90
2023/05/10 08:12:59;;;;;;;4.97;2.40;;;;;;;15.10;42.98;99837.16;4965849;28;20420;-90
2023/05/10 08:15:28;;;;;;;5.13;2.33;;;;;;;15.25;41.52;99846.25;4998574;28;20029;-90
2023/05/10 08:17:54;;;;;;;10.95;7.40;;;;;;;15.27;42.30;99838.63;4982858;28;20108;-88
2023/05/10 08:20:20;;;;;;;4.30;2.10;;;;;;;15.63;41.63;99849.09;4982624;28;20026;-88
2023/05/10 08:23:44;;;;;;;4.72;2.30;;;;;;;15.84;40.99;99858.63;4967451;28;20021;-90
2023/05/10 08:26:10;;;;;;;4.70;2.70;;;;;;;15.43;41.97;99829.22;4921326;29;20067;-90
2023/05/10 08:28:45;;;;;;;3.95;2.45;;;;;;;15.64;41.24;99851.50;4916035;29;20073;-96
2023/05/10 08:33:46;;;;;;;4.75;2.20;;;;;;;15.82;41.06;99836.38;5765170;23;20053;-95
2023/05/10 08:36:15;;;;;;;4.10;2.22;;;;;;;15.99;41.07;99837.78;4996447;28;20034;-96
2023/05/10 08:45:33;;;;;;;4.35;2.30;;;;;;;16.64;39.99;99848.72;5051116;28;20088;-96
2023/05/10 08:48:01;;;;;;;2.42;1.90;;;;;;;16.51;39.81;99836.72;5017960;28;20089;-96
2023/05/10 08:51:05;;;;;;;4.80;2.75;;;;;;;16.51;39.73;99822.31;5000489;28;20047;-96
2023/05/10 08:56:09;;;;;;;4.72;2.13;;;;;;;16.78;39.44;99827.03;5136234;22;20043;-96
2023/05/10 08:58:51;;;;;;;6.03;2.60;;;;;;;16.93;38.22;99829.53;4943926;28;20073;-96
2023/05/10 09:01:24;;;;;;;4.50;1.98;;;;;;;16.88;36.92;99826.09;4957310;28;20031;-96
2023/05/10 09:03:53;;;;;;;2.72;1.70;;;;;;;16.85;37.16;99819.34;4953007;28;20090;-96
2023/05/10 09:06:21;;;;;;;2.90;2.10;;;;;;;16.77;36.49;99812.63;5304981;23;20050;-94
2023/05/10 09:08:47;;;;;;;3.60;2.42;;;;;;;16.75;37.72;99814.84;5278751;23;20620;-96
2023/05/10 09:11:14;;;;;;;3.83;2.22;;;;;;;16.79;38.19;99809.63;4955947;28;20034;-96
2023/05/10 09:13:51;;;;;;;5.05;1.80;;;;;;;16.82;36.75;99821.84;4935576;28;20030;-96
2023/05/10 09:16:43;;;;;;;2.55;1.80;;;;;;;16.68;38.18;99822.56;4931727;29;20047;-96
2023/05/10 09:19:12;;;;;;;3.75;2.33;;;;;;;16.50;38.11;99801.69;4947239;29;20093;-95
2023/05/10 09:22:03;;;;;;;;;;;;;;;;;;;;;
2023/05/10 09:24:30;;;;;;;2.13;1.75;;;;;;;16.29;37.57;99785.72;4896886;29;20108;-95
2023/05/10 09:27:09;;;;;;;3.72;1.85;;;;;;;16.51;37.14;99795.94;4915766;29;20035;-95
2023/05/10 09:29:42;;;;;;;4.15;1.80;;;;;;;16.14;36.71;99800.34;4926096;29;20036;-95
2023/05/10 09:32:08;;;;;;;3.47;1.92;;;;;;;16.03;37.06;99785.28;4927965;29;20529;-95
2023/05/10 09:34:39;;;;;;;4.57;2.75;;;;;;;16.41;36.98;99787.16;4908037;29;20039;-94
2023/05/10 09:37:14;;;;;;;4.35;2.60;;;;;;;16.64;36.89;99783.47;4944457;29;20549;-96
2023/05/10 09:40:42;;;;;;;;;;;;;;;;;;;;;
2023/05/10 09:50:04;;;;;;;4.75;3.03;;;;;;;16.73;37.16;99794.50;4902328;29;20051;-94
2023/05/10 09:52:34;;;;;;;3.55;2.35;;;;;;;16.91;36.31;99803.72;4898380;29;20040;-95
2023/05/10 09:55:51;;;;;;;;;;;;;;;;;;;;;
2023/05/10 09:59:24;;;;;;;2.40;1.67;;;;;;;17.07;35.82;99763.44;4915063;29;20055;-96
2023/05/10 10:02:10;;;;;;;6.53;4.10;;;;;;;17.59;34.95;99764.00;4906964;29;20536;-95
2023/05/10 10:08:34;;;;;;;5.55;2.40;;;;;;;18.25;34.88;99779.97;4874073;29;20085;-96
2023/05/10 10:11:20;;;;;;;;;;;;;;;;;;;;;
2023/05/10 10:14:28;;;;;;;4.10;2.30;;;;;;;18.48;34.49;99764.41;4884997;29;20075;-94
2023/05/10 10:24:51;;;;;;;2.78;1.85;;;;;;;18.95;31.62;99748.47;5041292;23;20046;-93
2023/05/10 10:27:36;;;;;;;3.90;1.88;;;;;;;19.33;31.16;99772.53;5012512;28;20095;-96
2023/05/10 10:30:44;;;;;;;;;;;;;;;;;;;;;
2023/05/10 10:33:25;;;;;;;4.35;2.10;;;;;;;19.63;31.24;99773.56;5028058;28;20034;-93
2023/05/10 10:36:16;;;;;;;5.28;1.70;;;;;;;19.62;31.32;99752.03;5008662;28;20026;-93
2023/05/10 10:39:12;;;;;;;7.17;1.90;;;;;;;19.82;31.53;99756.06;4989806;28;20030;-95
2023/05/10 10:41:57;;;;;;;6.32;2.10;;;;;;;19.64;31.17;99752.50;4961620;28;20027;-96
2023/05/10 10:45:21;;;;;;;3.33;1.92;;;;;;;19.66;30.89;99761.19;5040704;23;20058;-95
2023/05/10 10:58:53;;;;;;;4.57;2.25;;;;;;;19.23;33.00;99737.31;5014589;28;20074;-95
2023/05/10 11:01:30;;;;;;;3.90;1.88;;;;;;;19.05;33.39;99731.00;4969825;28;20077;-96
2023/05/10 11:04:02;;;;;;;4.20;2.30;;;;;;;18.59;35.14;99752.09;4974300;28;20026;-93
2023/05/10 11:06:35;;;;;;;4.82;2.50;;;;;;;18.43;35.35;99729.06;5000738;28;20061;-94
2023/05/10 11:09:58;;;;;;;3.70;2.40;;;;;;;18.20;35.77;99737.31;4951429;28;20053;-94
2023/05/10 11:12:24;;;;;;;2.92;2.20;;;;;;;18.21;35.41;99738.91;4889000;29;20029;-93
2023/05/10 11:15:07;;;;;;;5.80;1.77;;;;;;;18.49;34.72;99757.81;4967863;28;20038;-96
2023/05/10 11:17:47;;;;;;;;;;;;;;;;;;;;;
2023/05/10 11:20:28;;;;;;;4.85;2.53;;;;;;;17.99;36.08;99750.59;4967706;28;20082;-94
2023/05/10 11:23:40;;;;;;;8.63;4.40;;;;;;;18.04;36.57;99760.59;4952253;28;20041;-95
2023/05/10 11:26:25;;;;;;;4.78;2.35;;;;;;;18.08;34.56;99747.94;4955070;29;20030;-94
2023/05/10 11:29:42;;;;;;;5.28;3.08;;;;;;;18.28;33.31;99733.00;4930493;28;20035;-94
2023/05/10 11:32:47;;;;;;;3.60;1.55;;;;;;;18.50;31.65;99743.09;4937848;29;20043;-94
2023/05/10 11:35:12;;;;;;;3.40;1.98;;;;;;;18.53;32.15;99745.19;4924932;29;20063;-92
2023/05/10 11:37:43;;;;;;;9.40;2.75;;;;;;;18.23;32.70;99742.13;4905470;29;20031;-89
2023/05/10 11:40:31;;;;;;;4.25;1.88;;;;;;;18.49;33.59;99761.38;4921610;29;20106;-93
2023/05/10 11:42:57;;;;;;;2.22;1.70;;;;;;;18.52;33.73;99747.09;4915004;29;20175;-92
2023/05/10 11:45:24;;;;;;;2.92;1.85;;;;;;;18.31;34.17;99738.66;4904023;29;20035;-92
2023/05/10 11:48:33;;;;;;;4.18;2.00;;;;;;;18.35;34.91;99734.19;4904016;29;20399;-94
2023/05/10 11:50:58;;;;;;;4.47;2.15;;;;;;;18.38;35.40;99755.34;4917152;29;20514;-94
2023/05/10 11:53:27;;;;;;;5.85;1.83;;;;;;;18.12;35.19;99721.69;4928016;29;20067;-93
2023/05/10 11:56:02;;;;;;;3.92;3.08;;;;;;;18.04;36.13;99734.13;4963766;28;20486;-92
2023/05/10 11:58:27;;;;;;;5.03;1.85;;;;;;;18.20;36.80;99752.81;4958849;28;20094;-92
2023/05/10 12:00:55;;;;;;;6.32;2.10;;;;;;;18.02;37.22;99728.19;4956909;28;20034;-92
2023/05/10 12:04:04;;;;;;;4.25;1.92;;;;;;;17.96;37.04;99741.13;4973619;28;20030;-91
2023/05/10 12:06:34;;;;;;;3.88;2.55;;;;;;;17.98;35.56;99738.88;4989239;28;20504;-89
2023/05/10 12:09:03;;;;;;;8.50;3.53;;;;;;;18.14;36.31;99736.63;4987926;28;20037;-91
2023/05/10 12:11:55;;;;;;;2.75;1.98;;;;;;;18.41;36.08;99726.69;4953406;28;20040;-90
2023/05/10 12:14:21;;;;;;;5.72;2.10;;;;;;;18.35;34.43;99719.75;4984112;28;20092;-90
2023/05/10 12:16:47;;;;;;;6.65;1.58;;;;;;;18.35;34.40;99742.38;4988990;28;20026;-90
2023/05/10 12:19:27;;;;;;;8.27;2.95;;;;;;;18.47;35.55;99751.88;4978134;28;20673;-91
2023/05/10 12:22:06;;;;;;;3.75;2.42;;;;;;;18.32;35.93;99723.91;5021235;28;20076;-95
2023/05/10 12:30:35;;;;;;;9.75;2.72;;;;;;;18.49;36.17;99717.75;5551808;22;20050;-95
2023/05/10 12:33:32;;;;;;;6.88;2.60;;;;;;;18.57;33.97;99699.81;4995200;28;20037;-95
2023/05/10 12:36:16;;;;;;;3.42;2.10;;;;;;;19.00;34.65;99736.63;4896423;29;20056;-95
2023/05/10 12:38:51;;;;;;;6.22;4.63;;;;;;;18.91;34.81;99715.56;4934877;29;20038;-96
2023/05/10 12:41:21;;;;;;;3.10;2.33;;;;;;;19.03;35.23;99709.50;4965214;29;20088;-96
2023/05/10 12:44:11;;;;;;;4.95;2.05;;;;;;;19.06;35.20;99722.50;4937612;29;20513;-95
2023/05/10 12:47:01;;;;;;;3.88;1.75;;;;;;;18.93;33.95;99728.88;4921959;29;20039;-96
2023/05/10 12:49:44;;;;;;;3.38;2.20;;;;;;;18.93;35.15;99709.78;4951855;29;20036;-94
2023/05/10 12:52:32;;;;;;;7.55;2.55;;;;;;;18.73;34.55;99701.00;4922047;29;20027;-95
2023/05/10 13:03:05;;;;;;;7.25;2.95;;;;;;;18.00;37.53;99697.72;5602340;22;20083;-94
2023/05/10 13:05:58;;;;;;;4.95;2.35;;;;;;;18.25;36.00;99690.81;4973215;28;20065;-95
2023/05/10 13:08:34;;;;;;;;;;;;;;;;;;;;;
2023/05/10 13:11:06;;;;;;;4.88;2.05;;;;;;;18.36;35.80;99683.19;4970661;28;20087;-95
2023/05/10 13:13:37;;;;;;;3.15;1.90;;;;;;;18.53;34.98;99683.28;4951928;28;20062;-92
2023/05/10 13:16:04;;;;;;;2.05;1.80;;;;;;;18.55;35.42;99691.13;4949433;28;20023;-96
2023/05/10 13:18:41;;;;;;;4.00;2.75;;;;;;;18.44;35.75;99687.88;4950944;28;20034;-94